Time;durP1;ratioP1;P1;durP2;ratioP2;P2;SDS_P1;SDS_P2;PMS_P1;PMS_P2;Temp;Humidity;BMP_temperature;BMP_pressure;BME280_temperature;BME280_humidity;BME280_pressure;Samples;Min_cycle;Max_cycle;Signal;HPM_P1;HPM_P2
2022/09/27 00:01:04;;;;;;;22.07;15.70;;;;;;;-141.97;78.32;47542.16;5037085;28;20638;-86
2022/09/27 00:03:30;;;;;;;21.13;16.07;;;;;;;-141.97;80.16;47542.16;5037068;28;20162;-87
2022/09/27 00:06:13;;;;;;;18.93;15.47;;;;;;;-141.97;82.41;47536.38;5036027;28;20189;-87
2022/09/27 00:08:38;;;;;;;20.40;16.53;;;;;;;-141.97;83.74;47524.84;5043882;28;20688;-85
2022/09/27 00:11:06;;;;;;;20.57;16.27;;;;;;;-141.97;84.67;47515.22;5041780;28;20162;-86
2022/09/27 00:13:32;;;;;;;20.47;15.97;;;;;;;-141.97;85.19;47538.28;5034859;28;20308;-86
2022/09/27 00:15:59;;;;;;;20.57;15.33;;;;;;;-141.97;85.12;47557.53;5034267;28;20651;-86
2022/09/27 00:18:25;;;;;;;19.90;16.00;;;;;;;-141.97;85.25;47507.53;5033997;28;20162;-86
2022/09/27 00:20:51;;;;;;;22.83;15.67;;;;;;;-141.97;85.66;47540.22;5033569;28;20185;-86
2022/09/27 00:23:16;;;;;;;20.60;15.27;;;;;;;-141.97;85.00;47524.84;5033937;28;20682;-86
2022/09/27 00:25:41;;;;;;;17.70;14.47;;;;;;;-141.97;84.58;47517.16;5049296;28;20202;-86
2022/09/27 00:28:08;;;;;;;18.40;14.23;;;;;;;-141.97;84.41;47515.22;5034007;28;20256;-87
2022/09/27 00:30:33;;;;;;;16.70;13.07;;;;;;;-141.97;84.06;47549.84;5034065;28;20173;-87
2022/09/27 00:32:59;;;;;;;18.33;13.20;;;;;;;-141.97;84.41;47449.88;5033609;28;20158;-87
2022/09/27 00:35:24;;;;;;;20.07;14.10;;;;;;;-141.97;84.60;47519.06;5033611;28;20265;-86
2022/09/27 00:37:50;;;;;;;18.43;14.33;;;;;;;-141.97;84.45;47522.91;5033458;28;20639;-87
2022/09/27 00:40:15;;;;;;;17.13;13.87;;;;;;;-141.97;84.09;47524.84;5033651;28;20224;-86
2022/09/27 00:42:41;;;;;;;18.90;14.77;;;;;;;-141.97;84.61;47549.84;5033817;28;20166;-87
2022/09/27 00:45:16;;;;;;;18.57;13.67;;;;;;;-141.97;83.91;47530.59;5034032;28;20276;-85
2022/09/27 00:47:50;;;;;;;18.53;13.80;;;;;;;-141.97;83.60;47536.38;5015554;28;20161;-87
2022/09/27 00:50:25;;;;;;;19.40;13.83;;;;;;;-141.97;84.17;47538.28;5033350;28;20241;-87
2022/09/27 00:53:02;;;;;;;18.77;13.73;;;;;;;-141.97;84.13;47565.22;5033796;28;20158;-86
2022/09/27 00:55:33;;;;;;;18.07;13.70;;;;;;;-141.97;83.59;47503.69;5033168;28;20168;-86
2022/09/27 00:58:00;;;;;;;15.67;13.43;;;;;;;-141.97;83.45;47536.38;5033144;28;20645;-86
2022/09/27 01:00:26;;;;;;;14.10;12.20;;;;;;;-141.97;82.84;47534.44;5033126;28;20212;-86
2022/09/27 01:02:54;;;;;;;16.70;13.07;;;;;;;-141.97;82.55;47532.53;5032925;28;20249;-86
2022/09/27 01:05:23;;;;;;;14.40;12.37;;;;;;;-141.97;82.28;47522.91;5033152;28;20244;-86
2022/09/27 01:07:49;;;;;;;17.67;13.20;;;;;;;-141.97;81.64;47507.53;5031469;28;20668;-85
2022/09/27 01:10:17;;;;;;;15.43;13.13;;;;;;;-141.97;82.35;47505.63;5015560;28;20241;-85
2022/09/27 01:13:03;;;;;;;15.27;12.83;;;;;;;-141.97;81.81;47534.44;5033028;28;20170;-86
2022/09/27 01:15:32;;;;;;;15.10;12.30;;;;;;;-141.97;80.94;47530.59;5032585;28;20304;-85
2022/09/27 01:18:16;;;;;;;14.63;12.40;;;;;;;-141.97;81.10;47530.59;5032949;28;20237;-85
2022/09/27 01:21:08;;;;;;;14.63;12.27;;;;;;;-141.97;81.38;47534.44;5033224;28;20162;-85
2022/09/27 01:23:49;;;;;;;14.50;11.60;;;;;;;-141.97;81.11;47540.22;5033151;28;20166;-86
2022/09/27 01:26:22;;;;;;;15.97;11.17;;;;;;;-141.97;81.15;47534.44;5032919;28;20173;-86
2022/09/27 01:29:03;;;;;;;14.93;10.97;;;;;;;-141.97;81.17;47511.38;5032691;28;20170;-86
2022/09/27 01:31:35;;;;;;;16.53;11.10;;;;;;;-141.97;82.38;47546.00;5033048;28;20192;-86
2022/09/27 01:34:13;;;;;;;15.40;11.57;;;;;;;-141.97;82.50;47542.16;5032496;28;20220;-88
2022/09/27 01:36:42;;;;;;;13.90;11.03;;;;;;;-141.97;82.10;47546.00;5033274;28;20193;-88
2022/09/27 01:39:10;;;;;;;13.33;10.80;;;;;;;-141.97;82.18;47517.16;5033024;28;20193;-87
2022/09/27 01:41:44;;;;;;;14.53;10.67;;;;;;;-141.97;82.07;47547.91;5032832;28;20178;-85
2022/09/27 01:44:19;;;;;;;14.27;10.67;;;;;;;-141.97;81.60;47588.28;5033579;28;20235;-86
2022/09/27 01:46:52;;;;;;;15.80;10.90;;;;;;;-141.97;81.19;47647.84;5032421;28;20195;-86
2022/09/27 01:49:26;;;;;;;12.70;10.40;;;;;;;-141.97;81.17;47699.75;5032495;28;20161;-86
2022/09/27 01:51:57;;;;;;;13.30;9.87;;;;;;;-141.97;81.25;47538.28;5033181;28;20162;-87
2022/09/27 01:54:29;;;;;;;12.60;10.50;;;;;;;-141.97;81.08;47561.38;5034228;28;20272;-87
2022/09/27 01:56:58;;;;;;;13.33;10.33;;;;;;;-141.97;80.68;47376.84;5036448;28;20172;-87
2022/09/27 01:59:31;;;;;;;11.23;9.77;;;;;;;-141.97;80.18;47534.44;5053220;28;20199;-86
2022/09/27 02:02:01;;;;;;;12.40;10.53;;;;;;;-141.97;80.77;47530.59;5037824;28;20164;-87
2022/09/27 02:04:31;;;;;;;14.43;10.53;;;;;;;-141.97;80.93;47499.84;5036490;28;20209;-86
2022/09/27 02:07:02;;;;;;;12.87;10.40;;;;;;;-141.97;81.00;47711.28;5035929;28;20162;-86
2022/09/27 02:09:38;;;;;;;12.43;10.37;;;;;;;-141.97;81.20;47503.69;5035837;28;20173;-85
2022/09/27 02:12:08;;;;;;;13.93;10.70;;;;;;;-141.97;81.86;47534.44;5035757;28;20166;-85
2022/09/27 02:14:46;;;;;;;11.57;10.00;;;;;;;-141.97;81.56;47515.22;5036120;28;20558;-87
2022/09/27 02:17:22;;;;;;;12.63;10.17;;;;;;;-141.97;80.53;47542.16;5036573;28;20249;-86
2022/09/27 02:20:00;;;;;;;17.97;13.07;;;;;;;-141.97;80.76;47546.00;5018216;28;20165;-87
2022/09/27 02:22:41;;;;;;;14.43;10.90;;;;;;;-141.97;80.72;47561.38;5018129;28;20240;-87
2022/09/27 02:25:15;;;;;;;15.90;11.00;;;;;;;-141.97;80.61;47561.38;5036291;28;20185;-87
2022/09/27 02:28:13;;;;;;;13.53;10.40;;;;;;;-141.97;80.98;47569.06;5036142;28;20637;-87
2022/09/27 02:30:38;;;;;;;14.33;11.33;;;;;;;-141.97;81.72;47684.38;4974979;28;20192;-87
2022/09/27 02:33:04;;;;;;;16.37;11.20;;;;;;;-141.97;83.19;47522.91;4974956;28;20324;-88
2022/09/27 02:35:33;;;;;;;16.60;11.73;;;;;;;-141.97;82.96;47515.22;4975123;28;20207;-88
2022/09/27 02:38:00;;;;;;;14.33;11.13;;;;;;;-141.97;83.71;47553.69;4975167;28;20211;-88
2022/09/27 02:40:30;;;;;;;19.63;11.70;;;;;;;-141.97;85.27;47546.00;4974912;28;20192;-85
2022/09/27 02:42:56;;;;;;;14.33;11.37;;;;;;;-141.97;86.92;47561.38;4974997;28;20252;-85
2022/09/27 02:45:23;;;;;;;17.00;11.10;;;;;;;-141.97;87.05;47522.91;4991624;28;20298;-85
2022/09/27 02:48:21;;;;;;;16.40;11.10;;;;;;;-141.97;87.00;47559.44;4975190;28;20195;-87
2022/09/27 02:51:19;;;;;;;14.43;11.33;;;;;;;-141.97;87.35;47563.28;4976723;28;20180;-84
2022/09/27 02:53:57;;;;;;;19.40;11.77;;;;;;;-141.97;87.81;47515.22;4937066;29;20194;-86
2022/09/27 02:56:44;;;;;;;15.23;12.57;;;;;;;-141.97;88.66;47538.28;4919631;29;20174;-87
2022/09/27 02:59:26;;;;;;;16.10;12.57;;;;;;;-141.97;89.17;47546.00;4920662;29;20197;-87
2022/09/27 03:01:55;;;;;;;20.77;13.63;;;;;;;-141.97;90.28;47557.53;4919758;29;20536;-87
2022/09/27 03:04:47;;;;;;;18.17;13.93;;;;;;;-141.97;91.71;47569.06;4916901;29;20276;-86
2022/09/27 03:07:14;;;;;;;18.30;13.57;;;;;;;-141.97;92.29;47547.91;4907621;29;20190;-86
2022/09/27 03:09:46;;;;;;;19.93;14.40;;;;;;;-141.97;92.64;47580.59;4916663;29;20189;-85
2022/09/27 03:12:12;;;;;;;21.57;14.93;;;;;;;-141.97;92.37;47570.97;4917030;29;20599;-87
2022/09/27 03:14:38;;;;;;;18.43;14.73;;;;;;;-141.97;92.66;47553.69;4917176;29;20174;-87
2022/09/27 03:17:03;;;;;;;19.17;15.30;;;;;;;-141.97;92.59;47574.81;4920549;29;20225;-87
2022/09/27 03:19:29;;;;;;;21.73;15.47;;;;;;;-141.97;92.67;47555.59;4917570;29;20201;-86
2022/09/27 03:21:54;;;;;;;21.53;15.07;;;;;;;-141.97;92.15;47599.81;4917921;29;20621;-87
2022/09/27 03:24:19;;;;;;;21.83;15.23;;;;;;;-141.97;91.79;47544.06;4920925;29;20245;-87
2022/09/27 03:26:45;;;;;;;22.30;14.43;;;;;;;-141.97;91.12;47544.06;4922238;29;20170;-86
2022/09/27 03:29:11;;;;;;;23.57;14.13;;;;;;;-141.97;90.83;47561.38;4918435;29;20174;-86
2022/09/27 03:31:36;;;;;;;19.73;14.23;;;;;;;-141.97;91.41;47499.84;4953095;29;20256;-86
2022/09/27 03:34:02;;;;;;;19.77;14.50;;;;;;;-141.97;91.33;47588.28;4955023;29;20165;-87
2022/09/27 03:36:27;;;;;;;20.47;14.70;;;;;;;-141.97;90.79;47559.44;4955180;29;20720;-87
2022/09/27 03:38:53;;;;;;;19.37;14.53;;;;;;;-141.97;90.17;47557.53;4954978;29;20173;-87
2022/09/27 03:41:18;;;;;;;17.87;14.00;;;;;;;-141.97;89.77;47565.22;4954800;29;20183;-87
2022/09/27 03:43:44;;;;;;;20.10;13.77;;;;;;;-141.97;90.04;47709.38;4982254;28;20188;-87
2022/09/27 03:46:09;;;;;;;18.30;13.73;;;;;;;-141.97;89.62;47567.13;5036114;28;20653;-87
2022/09/27 03:48:35;;;;;;;20.23;13.73;;;;;;;-141.97;89.48;47588.28;5036474;28;20162;-86
2022/09/27 03:51:00;;;;;;;18.07;13.00;;;;;;;-141.97;89.37;47711.28;5043311;28;20158;-85
2022/09/27 03:53:25;;;;;;;19.00;14.03;;;;;;;-141.97;89.01;47553.69;5055973;28;20205;-87
2022/09/27 03:55:51;;;;;;;19.73;14.03;;;;;;;-141.97;89.52;47580.59;5034716;28;20226;-87
2022/09/27 03:58:16;;;;;;;18.80;13.77;;;;;;;-141.97;89.55;47580.59;5034249;28;20813;-87
2022/09/27 04:00:44;;;;;;;21.67;14.13;;;;;;;-141.97;89.73;47617.09;5034520;28;20245;-87
2022/09/27 04:03:10;;;;;;;19.20;14.00;;;;;;;-141.97;89.62;47578.66;5034693;28;20154;-87
2022/09/27 04:05:36;;;;;;;20.33;14.23;;;;;;;-141.97;89.93;47567.13;5033924;28;20190;-86
2022/09/27 04:08:04;;;;;;;18.40;13.47;;;;;;;-141.97;89.17;47586.34;5034032;28;20157;-87
2022/09/27 04:10:29;;;;;;;20.33;13.57;;;;;;;-141.97;88.38;47595.97;5033963;28;20157;-87
2022/09/27 04:12:55;;;;;;;18.20;13.13;;;;;;;-141.97;87.46;47555.59;5033661;28;20634;-86
2022/09/27 04:15:20;;;;;;;22.77;14.03;;;;;;;-141.97;86.57;47742.03;5035148;28;20641;-86
2022/09/27 04:17:46;;;;;;;20.17;13.90;;;;;;;-141.97;86.49;47786.25;5033781;28;20222;-86
2022/09/27 04:20:11;;;;;;;21.53;14.27;;;;;;;-141.97;85.72;47490.25;5033925;28;20225;-86
2022/09/27 04:22:42;;;;;;;22.97;13.63;;;;;;;-141.97;84.98;47561.38;5034576;28;20166;-86
2022/09/27 04:25:08;;;;;;;19.03;13.63;;;;;;;-141.97;84.96;47511.38;5016525;28;20206;-86
2022/09/27 04:27:34;;;;;;;19.43;14.03;;;;;;;-141.97;85.24;47561.38;5034563;28;20229;-85
2022/09/27 04:29:59;;;;;;;19.20;13.93;;;;;;;-141.97;86.15;47538.28;5033938;28;20659;-87
2022/09/27 04:32:25;;;;;;;19.33;14.37;;;;;;;-141.97;86.33;47530.59;5034745;28;20173;-87
2022/09/27 04:37:35;;;;;;;20.63;14.07;;;;;;;-141.97;85.63;47559.44;5033821;28;20243;-87
2022/09/27 04:40:01;;;;;;;21.43;14.90;;;;;;;-141.97;84.61;47569.06;5033854;28;20653;-87
2022/09/27 04:42:27;;;;;;;22.10;14.33;;;;;;;-141.97;83.90;47565.22;5034536;28;20170;-87
2022/09/27 04:44:52;;;;;;;23.20;15.40;;;;;;;-141.97;83.17;47605.56;5034774;28;20288;-87
2022/09/27 04:47:19;;;;;;;21.20;15.10;;;;;;;-141.97;83.09;47555.59;5039678;28;20180;-84
2022/09/27 04:49:45;;;;;;;17.90;14.53;;;;;;;-141.97;82.20;47538.28;5044442;28;20200;-86
2022/09/27 04:52:11;;;;;;;18.80;14.50;;;;;;;-141.97;82.57;47563.28;5037331;28;20158;-86
2022/09/27 04:54:37;;;;;;;21.43;14.60;;;;;;;-141.97;82.37;47607.50;5016218;28;20543;-86
2022/09/27 04:57:02;;;;;;;20.17;14.67;;;;;;;-141.97;82.00;47540.22;5035291;28;20168;-87
2022/09/27 04:59:28;;;;;;;22.37;14.90;;;;;;;-141.97;81.75;47553.69;5049559;28;20166;-85
2022/09/27 05:01:54;;;;;;;22.80;14.63;;;;;;;-141.97;81.75;47565.22;5033632;28;20169;-86
2022/09/27 05:04:19;;;;;;;20.80;14.83;;;;;;;-141.97;80.99;47530.59;5033569;28;20194;-86
2022/09/27 05:06:44;;;;;;;21.73;14.10;;;;;;;-141.97;80.18;47536.38;5033552;28;20165;-86
2022/09/27 05:09:10;;;;;;;21.23;14.60;;;;;;;-141.97;80.09;47578.66;5033411;28;20208;-86
2022/09/27 05:11:36;;;;;;;20.80;14.23;;;;;;;-141.97;79.97;47595.97;5032766;28;20171;-85
2022/09/27 05:14:03;;;;;;;21.77;14.97;;;;;;;-141.97;79.46;47578.66;5033810;28;20154;-85
2022/09/27 05:16:28;;;;;;;23.10;15.13;;;;;;;-141.97;78.59;47559.44;5034176;28;20308;-86
2022/09/27 05:18:54;;;;;;;18.40;14.23;;;;;;;-141.97;77.45;47565.22;5033811;28;20700;-86
2022/09/27 05:21:19;;;;;;;23.93;14.20;;;;;;;-141.97;76.75;47559.44;5034074;28;20162;-86
2022/09/27 05:23:44;;;;;;;19.80;14.10;;;;;;;-141.97;76.79;47432.59;5033058;28;20623;-87
2022/09/27 05:26:10;;;;;;;22.03;14.20;;;;;;;-141.97;77.05;47669.00;5032110;28;20170;-86
2022/09/27 05:28:36;;;;;;;23.67;14.80;;;;;;;-141.97;76.38;47563.28;5032781;28;20166;-88
2022/09/27 05:31:01;;;;;;;23.30;15.43;;;;;;;-141.97;75.43;47513.31;5034062;28;20162;-86
2022/09/27 05:33:27;;;;;;;24.17;16.60;;;;;;;-141.97;75.79;47521.00;5025227;28;20769;-86
2022/09/27 05:35:54;;;;;;;26.40;18.57;;;;;;;-141.97;75.47;47549.84;5017835;28;20281;-85
2022/09/27 05:38:19;;;;;;;26.33;18.60;;;;;;;-141.97;75.09;47574.81;5002114;28;20226;-86
2022/09/27 05:40:47;;;;;;;27.33;19.23;;;;;;;-141.97;74.95;47522.91;5022575;28;20181;-84
2022/09/27 05:43:13;;;;;;;30.00;21.23;;;;;;;-141.97;75.97;47547.91;5011805;28;20229;-85
2022/09/27 05:45:38;;;;;;;29.63;21.03;;;;;;;-141.97;75.43;47569.06;5032758;28;20209;-86
2022/09/27 05:48:04;;;;;;;31.87;21.53;;;;;;;-141.97;74.85;47544.06;5047218;28;20759;-84
2022/09/27 05:50:29;;;;;;;34.07;19.87;;;;;;;-141.97;74.08;47576.75;5009616;28;21687;-85
2022/09/27 05:52:55;;;;;;;33.33;19.13;;;;;;;-141.97;73.07;47555.59;5016587;28;20193;-86
2022/09/27 05:55:21;;;;;;;30.53;17.90;;;;;;;-141.97;72.55;47547.91;5013028;28;20182;-86
2022/09/27 05:58:01;;;;;;;25.83;16.70;;;;;;;-141.97;72.85;47549.84;5030480;28;20178;-87
2022/09/27 06:00:27;;;;;;;24.13;16.07;;;;;;;-141.97;73.24;47453.72;5012305;28;20735;-86
2022/09/27 06:02:59;;;;;;;23.30;16.57;;;;;;;-141.97;72.82;47563.28;5025408;28;20201;-87
2022/09/27 06:05:27;;;;;;;23.27;15.73;;;;;;;-141.97;73.42;47557.53;5010899;28;20221;-86
2022/09/27 06:08:01;;;;;;;21.37;14.90;;;;;;;-141.97;72.26;47572.91;5011396;28;20573;-87
2022/09/27 06:10:28;;;;;;;21.13;15.67;;;;;;;-141.97;71.85;47701.69;5030512;28;20184;-85
2022/09/27 06:13:06;;;;;;;24.17;14.60;;;;;;;-141.97;71.10;47540.22;5050169;28;20722;-85
2022/09/27 06:15:33;;;;;;;24.00;15.87;;;;;;;-141.97;71.28;47515.22;5035759;28;20680;-85
2022/09/27 06:18:15;;;;;;;20.83;14.27;;;;;;;-141.97;70.97;47532.53;5030012;28;20218;-85
2022/09/27 06:20:41;;;;;;;20.87;15.10;;;;;;;-141.97;71.04;47559.44;5030215;28;20182;-87
2022/09/27 06:23:10;;;;;;;21.33;14.27;;;;;;;-141.97;71.17;47547.91;5030765;28;20181;-87
2022/09/27 06:25:36;;;;;;;24.33;16.07;;;;;;;-141.97;70.42;47522.91;5029724;28;20728;-86
2022/09/27 06:28:03;;;;;;;20.67;13.83;;;;;;;-141.97;70.44;47465.25;5031266;28;20669;-84
2022/09/27 06:30:30;;;;;;;27.33;16.03;;;;;;;-141.97;69.24;47530.59;5029517;28;20185;-87
2022/09/27 06:33:00;;;;;;;21.83;14.67;;;;;;;-141.97;68.61;47534.44;5029231;28;20189;-87
2022/09/27 06:35:26;;;;;;;22.90;14.77;;;;;;;-141.97;68.04;47572.91;5029732;28;20276;-86
2022/09/27 06:37:57;;;;;;;19.80;13.17;;;;;;;-141.97;68.80;47576.75;5031770;28;20273;-85
2022/09/27 06:40:25;;;;;;;20.07;12.90;;;;;;;-141.97;68.80;47476.78;5016294;28;20208;-86
2022/09/27 06:43:00;;;;;;;22.93;13.50;;;;;;;-141.97;69.58;47497.94;5037739;28;20189;-85
2022/09/27 06:45:30;;;;;;;17.27;12.40;;;;;;;-141.97;70.28;47530.59;5019672;28;20220;-88
2022/09/27 06:47:56;;;;;;;19.00;12.73;;;;;;;-141.97;71.31;47557.53;5018209;28;20196;-88
2022/09/27 06:50:22;;;;;;;14.83;11.73;;;;;;;-141.97;70.93;47538.28;5002107;28;20567;-86
2022/09/27 06:52:48;;;;;;;17.40;11.90;;;;;;;-141.97;71.48;47503.69;5015799;28;20181;-86
2022/09/27 06:55:14;;;;;;;15.73;11.33;;;;;;;-141.97;71.83;47515.22;5012959;28;20598;-86
2022/09/27 07:00:25;;;;;;;13.90;11.60;;;;;;;-141.97;71.15;47655.53;5034311;28;20192;-88
2022/09/27 07:02:52;;;;;;;15.97;11.10;;;;;;;-141.97;70.41;47507.53;5038319;28;20268;-87
2022/09/27 07:05:18;;;;;;;15.07;11.10;;;;;;;-141.97;69.66;47547.91;5022660;28;20202;-87
2022/09/27 07:07:44;;;;;;;18.30;10.97;;;;;;;-141.97;68.28;47499.84;5018406;28;20273;-89
2022/09/27 07:10:10;;;;;;;15.77;11.43;;;;;;;-141.97;67.87;47486.41;5025896;28;20205;-88
2022/09/27 07:12:36;;;;;;;16.60;11.30;;;;;;;-141.97;66.76;47724.75;5058687;28;20189;-89
2022/09/27 07:15:03;;;;;;;15.33;11.27;;;;;;;-141.97;66.99;47453.72;5044928;28;20170;-88
2022/09/27 07:17:28;;;;;;;15.30;11.17;;;;;;;-141.97;65.96;47522.91;5040976;28;20659;-89
2022/09/27 07:19:54;;;;;;;10.83;9.63;;;;;;;-141.97;64.54;47503.69;5040523;28;20735;-89
2022/09/27 07:22:20;;;;;;;12.07;9.90;;;;;;;-141.97;64.42;47530.59;5038168;28;20178;-89
2022/09/27 07:24:45;;;;;;;16.33;10.93;;;;;;;-141.97;64.59;47394.16;5040198;28;20194;-89
2022/09/27 07:27:11;;;;;;;12.37;10.37;;;;;;;-141.97;65.40;47463.34;5040634;28;20170;-89
2022/09/27 07:29:36;;;;;;;17.20;11.10;;;;;;;-141.97;65.38;47553.69;5026050;28;20233;-88
2022/09/27 07:32:03;;;;;;;15.33;10.67;;;;;;;-141.97;64.40;47503.69;5052216;28;20170;-88
2022/09/27 07:34:29;;;;;;;13.73;10.93;;;;;;;-141.97;62.43;47461.41;5048472;28;20178;-88
2022/09/27 07:36:59;;;;;;;14.70;10.60;;;;;;;-141.97;61.13;47540.22;5036176;28;20172;-90
2022/09/27 07:39:25;;;;;;;13.20;10.17;;;;;;;-141.97;60.87;47472.94;5035836;28;20189;-89
2022/09/27 07:41:51;;;;;;;11.13;9.57;;;;;;;-141.97;60.40;47496.00;5038790;28;20182;-88
2022/09/27 07:44:16;;;;;;;11.57;9.73;;;;;;;-141.97;59.51;47459.50;5020744;28;20209;-90
2022/09/27 07:46:42;;;;;;;12.47;9.77;;;;;;;-141.97;59.43;47499.84;5031235;28;20186;-89
2022/09/27 07:49:07;;;;;;;11.57;10.37;;;;;;;-141.97;59.38;47442.19;5016523;28;20281;-89
2022/09/27 07:51:33;;;;;;;11.07;9.90;;;;;;;-141.97;59.52;47496.00;5007687;28;20300;-89
2022/09/27 07:54:00;;;;;;;15.00;9.63;;;;;;;-141.97;60.24;47538.28;5016383;28;20907;-89
2022/09/27 07:56:26;;;;;;;10.27;8.80;;;;;;;-141.97;61.19;47522.91;5015970;28;20186;-89
2022/09/27 07:58:51;;;;;;;10.87;9.27;;;;;;;-141.97;62.00;47499.84;5017910;28;20182;-87
2022/09/27 08:01:17;;;;;;;11.17;9.43;;;;;;;-141.97;61.89;47480.63;5021684;28;20192;-88
2022/09/27 08:03:43;;;;;;;11.83;9.83;;;;;;;-141.97;62.67;47497.94;5020593;28;20178;-88
2022/09/27 08:06:09;;;;;;;13.33;9.70;;;;;;;-141.97;62.54;47672.84;5018495;28;20182;-88
2022/09/27 08:08:35;;;;;;;10.93;9.37;;;;;;;-141.97;61.13;47515.22;5018904;28;20190;-89
2022/09/27 08:11:11;;;;;;;10.67;9.23;;;;;;;-141.97;60.82;47403.75;5018643;28;20555;-89
2022/09/27 08:13:38;;;;;;;14.00;9.33;;;;;;;-141.97;60.89;47734.34;5018389;28;20186;-88
2022/09/27 08:16:04;;;;;;;11.30;9.00;;;;;;;-141.97;61.32;47409.53;5018803;28;20222;-88
2022/09/27 08:18:30;;;;;;;14.73;9.53;;;;;;;-141.97;61.19;47503.69;5035958;28;20281;-89
2022/09/27 08:20:56;;;;;;;9.50;8.50;;;;;;;-141.97;60.12;47494.09;5035896;28;20185;-89
2022/09/27 08:23:23;;;;;;;11.60;8.60;;;;;;;-141.97;59.93;47482.56;5035518;28;20697;-88
2022/09/27 08:25:53;;;;;;;11.20;8.70;;;;;;;-141.97;59.33;47463.34;5038202;28;20202;-89
2022/09/27 08:28:18;;;;;;;11.00;8.63;;;;;;;-141.97;58.33;47497.94;5038283;28;20662;-89
2022/09/27 08:30:44;;;;;;;10.87;8.80;;;;;;;-141.97;58.29;47401.84;5038532;28;20264;-88
2022/09/27 08:33:09;;;;;;;10.57;8.90;;;;;;;-141.97;58.47;47459.50;5036703;28;20217;-88
2022/09/27 08:35:35;;;;;;;13.80;8.93;;;;;;;-141.97;57.85;47511.38;5038453;28;20215;-89
2022/09/27 08:38:02;;;;;;;11.90;9.10;;;;;;;-141.97;58.15;47684.38;5039971;28;20186;-87
2022/09/27 08:40:43;;;;;;;20.40;10.00;;;;;;;-141.97;58.74;47480.63;5038050;28;20182;-88
2022/09/27 08:43:42;;;;;;;13.37;8.90;;;;;;;-141.97;57.60;47455.66;5041133;28;20186;-88
2022/09/27 08:46:27;;;;;;;9.73;8.73;;;;;;;-141.97;57.52;47449.88;5034261;28;20196;-88
2022/09/27 08:49:01;;;;;;;10.00;8.87;;;;;;;-141.97;58.09;47471.03;5028701;28;20631;-89
2022/09/27 08:51:30;;;;;;;10.47;8.73;;;;;;;-141.97;57.10;47694.00;5027333;28;20259;-88
2022/09/27 08:54:20;;;;;;;10.87;8.40;;;;;;;-141.97;56.13;47482.56;5044285;28;20181;-89
2022/09/27 08:56:48;;;;;;;10.80;8.60;;;;;;;-141.97;55.81;47471.03;4977006;28;20211;-89
2022/09/27 08:59:22;;;;;;;9.37;8.37;;;;;;;-141.97;54.79;47430.66;4975639;28;20211;-89
2022/09/27 09:01:50;;;;;;;11.83;9.30;;;;;;;-141.97;55.05;47311.50;4974112;28;20202;-90
2022/09/27 09:04:32;;;;;;;10.90;8.60;;;;;;;-141.97;54.40;47611.34;4974119;28;20203;-88
2022/09/27 09:07:12;;;;;;;10.27;8.60;;;;;;;-141.97;54.60;47480.63;4975048;28;20196;-90
2022/09/27 09:09:37;;;;;;;12.47;8.53;;;;;;;-141.97;54.01;47488.31;4957838;28;20203;-90
2022/09/27 09:12:48;;;;;;;10.70;8.47;;;;;;;-141.97;53.06;47417.22;4973780;28;20200;-89
2022/09/27 09:15:32;;;;;;;12.40;8.90;;;;;;;-141.97;53.09;47461.41;4940895;29;20240;-87
2022/09/27 09:18:17;;;;;;;9.90;8.48;;;;;;;-141.97;52.17;47457.56;4939837;29;20228;-91
2022/09/27 09:21:02;;;;;;;13.25;8.88;;;;;;;-141.97;51.93;47446.03;4939842;29;20206;-88
2022/09/27 09:23:36;;;;;;;13.02;8.48;;;;;;;-141.97;51.62;47419.13;4953439;29;20202;-89
2022/09/27 09:26:28;;;;;;;11.05;8.40;;;;;;;-141.97;51.48;47463.34;4956210;29;20221;-88
2022/09/27 09:29:06;;;;;;;9.68;8.20;;;;;;;-141.97;51.28;47428.75;4935146;29;20214;-89
2022/09/27 09:31:51;;;;;;;9.05;8.10;;;;;;;-141.97;50.87;47476.78;4939489;29;20273;-88
2022/09/27 09:34:22;;;;;;;10.60;8.60;;;;;;;-141.97;50.37;47403.75;4943360;29;20198;-89
2022/09/27 09:37:23;;;;;;;12.88;8.90;;;;;;;-141.97;50.70;47457.56;4933998;29;20276;-88
2022/09/27 09:39:54;;;;;;;10.20;8.13;;;;;;;-141.97;50.37;47434.50;4879109;29;20686;-87
2022/09/27 09:42:35;;;;;;;11.02;8.30;;;;;;;-141.97;51.75;47653.63;4885919;29;20201;-88
2022/09/27 09:45:25;;;;;;;12.52;8.23;;;;;;;-141.97;52.68;47465.25;4890809;29;20595;-89
2022/09/27 09:47:54;;;;;;;9.80;8.27;;;;;;;-141.97;52.67;47471.03;4878554;29;20202;-87
2022/09/27 09:50:34;;;;;;;9.80;8.27;;;;;;;-141.97;51.34;47467.19;4894173;29;20208;-87
2022/09/27 09:53:28;;;;;;;12.83;8.47;;;;;;;-141.97;50.64;47476.78;4883525;29;20241;-88
2022/09/27 09:56:06;;;;;;;10.10;8.60;;;;;;;-141.97;50.79;47449.88;4913807;29;20189;-87
2022/09/27 09:58:43;;;;;;;13.63;8.68;;;;;;;-141.97;51.42;47365.31;4916964;29;20194;-89
2022/09/27 10:01:23;;;;;;;10.88;9.15;;;;;;;-141.97;51.25;47446.03;4915626;29;20197;-89
2022/09/27 10:03:49;;;;;;;11.13;8.50;;;;;;;-141.97;52.15;47307.66;4916306;29;20218;-87
2022/09/27 10:06:17;;;;;;;9.40;8.37;;;;;;;-141.97;52.60;47676.69;4936359;29;20640;-89
2022/09/27 10:08:43;;;;;;;12.00;9.17;;;;;;;-141.97;52.21;47430.66;4937533;29;20192;-89
2022/09/27 10:11:20;;;;;;;9.97;8.83;;;;;;;-141.97;52.40;47455.66;4955775;29;20210;-88
2022/09/27 10:13:46;;;;;;;12.10;8.05;;;;;;;-141.97;52.20;47490.25;4950471;29;20192;-87
2022/09/27 10:16:14;;;;;;;10.23;8.30;;;;;;;-141.97;51.47;47353.78;4958677;28;21017;-88
2022/09/27 10:18:41;;;;;;;11.50;8.23;;;;;;;-141.97;51.36;47384.53;5034663;28;20186;-87
2022/09/27 10:21:13;;;;;;;9.93;8.50;;;;;;;-141.97;52.16;47492.16;5037792;28;20181;-87
2022/09/27 10:24:03;;;;;;;11.98;9.55;;;;;;;-141.97;51.16;47469.09;5036656;28;20193;-86
2022/09/27 10:26:29;;;;;;;10.27;8.27;;;;;;;-141.97;50.78;47430.66;5034527;28;20182;-86
2022/09/27 10:28:55;;;;;;;11.47;8.57;;;;;;;-141.97;52.41;47644.00;5037135;28;20531;-87
2022/09/27 10:31:21;;;;;;;11.90;9.10;;;;;;;-141.97;52.37;47442.19;5034980;28;20186;-86
2022/09/27 10:33:55;;;;;;;13.95;8.70;;;;;;;-141.97;52.36;47346.09;5016975;28;20193;-87
2022/09/27 10:36:27;;;;;;;12.57;8.70;;;;;;;-141.97;52.11;47482.56;5016659;28;20197;-86
2022/09/27 10:38:55;;;;;;;11.43;8.27;;;;;;;-141.97;52.23;47267.31;5034825;28;20272;-87
2022/09/27 10:41:33;;;;;;;13.33;8.43;;;;;;;-141.97;52.16;47480.63;5033322;28;20205;-86
2022/09/27 10:44:20;;;;;;;10.93;8.53;;;;;;;-141.97;51.33;47469.09;5015722;28;20186;-87
2022/09/27 10:46:52;;;;;;;10.70;8.85;;;;;;;-141.97;51.29;47403.75;5017779;28;20187;-86
2022/09/27 10:49:28;;;;;;;9.90;8.20;;;;;;;-141.97;51.20;47457.56;5018227;28;20186;-89
2022/09/27 10:51:57;;;;;;;15.43;10.82;;;;;;;-141.97;50.75;47657.47;5005995;28;20242;-86
2022/09/27 10:54:23;;;;;;;14.32;8.30;;;;;;;-141.97;49.84;47457.56;5034349;28;20215;-86
2022/09/27 10:57:00;;;;;;;9.02;7.90;;;;;;;-141.97;49.39;47472.94;5033786;28;20192;-86
2022/09/27 10:59:30;;;;;;;9.25;8.15;;;;;;;-141.97;47.97;47486.41;5034771;28;20268;-87
2022/09/27 11:01:57;;;;;;;8.82;7.93;;;;;;;-141.97;48.21;47534.44;5034368;28;20185;-87
2022/09/27 11:04:35;;;;;;;11.15;7.85;;;;;;;-141.97;48.24;47678.63;5037104;28;20209;-87
2022/09/27 11:07:26;;;;;;;8.25;6.88;;;;;;;-141.97;47.14;47315.34;5034715;28;20617;-88
2022/09/27 11:09:55;;;;;;;7.90;7.00;;;;;;;-141.97;46.67;47482.56;4939207;29;20227;-87
2022/09/27 11:12:21;;;;;;;8.45;7.20;;;;;;;-141.97;47.50;47419.13;4940060;29;20208;-87
2022/09/27 11:15:13;;;;;;;9.00;7.53;;;;;;;-141.97;47.21;47440.28;4958391;29;20723;-87
2022/09/27 11:17:46;;;;;;;8.73;7.05;;;;;;;-141.97;47.43;47388.38;4969976;28;20234;-87
2022/09/27 11:20:15;;;;;;;9.07;7.45;;;;;;;-141.97;46.97;47361.47;4972555;28;20197;-86
2022/09/27 11:23:09;;;;;;;9.73;7.30;;;;;;;-141.97;47.30;47438.34;4973150;28;20211;-86
2022/09/27 11:25:49;;;;;;;9.18;7.22;;;;;;;-141.97;47.35;47444.13;4933799;29;20248;-86